sensor_id;sensor_type;location;lat;lon;timestamp;P1;durP1;ratioP1;P2;durP2;ratioP2
77888;SDS011;67082;41.704;44.768;2023-12-22T00:00:35;29.45;;;14.27;;
77888;SDS011;67082;41.704;44.768;2023-12-22T00:03:23;35.72;;;15.13;;
77888;SDS011;67082;41.704;44.768;2023-12-22T00:05:51;29.85;;;14.48;;
77888;SDS011;67082;41.704;44.768;2023-12-22T00:08:20;36.00;;;15.05;;
77888;SDS011;67082;41.704;44.768;2023-12-22T00:10:49;28.13;;;14.15;;
77888;SDS011;67082;41.704;44.768;2023-12-22T00:13:18;26.73;;;14.35;;
77888;SDS011;67082;41.704;44.768;2023-12-22T00:15:46;31.05;;;14.25;;
77888;SDS011;67082;41.704;44.768;2023-12-22T00:18:14;31.02;;;14.63;;
77888;SDS011;67082;41.704;44.768;2023-12-22T00:20:42;32.42;;;14.25;;
77888;SDS011;67082;41.704;44.768;2023-12-22T00:23:10;35.08;;;14.10;;
77888;SDS011;67082;41.704;44.768;2023-12-22T00:25:39;30.67;;;14.07;;
77888;SDS011;67082;41.704;44.768;2023-12-22T00:28:07;26.33;;;13.43;;
77888;SDS011;67082;41.704;44.768;2023-12-22T00:30:36;27.67;;;13.85;;
77888;SDS011;67082;41.704;44.768;2023-12-22T00:33:04;30.55;;;13.57;;
77888;SDS011;67082;41.704;44.768;2023-12-22T00:35:33;27.00;;;14.20;;
77888;SDS011;67082;41.704;44.768;2023-12-22T00:38:03;29.48;;;13.68;;
77888;SDS011;67082;41.704;44.768;2023-12-22T00:40:31;28.58;;;14.13;;
77888;SDS011;67082;41.704;44.768;2023-12-22T00:42:59;31.23;;;14.40;;
77888;SDS011;67082;41.704;44.768;2023-12-22T00:45:28;33.85;;;14.50;;
77888;SDS011;67082;41.704;44.768;2023-12-22T00:47:56;31.15;;;13.88;;
77888;SDS011;67082;41.704;44.768;2023-12-22T00:50:24;22.70;;;11.27;;
77888;SDS011;67082;41.704;44.768;2023-12-22T00:52:52;26.13;;;12.05;;
77888;SDS011;67082;41.704;44.768;2023-12-22T00:55:20;24.85;;;11.50;;
77888;SDS011;67082;41.704;44.768;2023-12-22T00:57:49;22.55;;;11.10;;
77888;SDS011;67082;41.704;44.768;2023-12-22T01:00:17;27.33;;;11.68;;
77888;SDS011;67082;41.704;44.768;2023-12-22T01:02:45;24.27;;;11.55;;
77888;SDS011;67082;41.704;44.768;2023-12-22T01:05:14;25.13;;;12.88;;
77888;SDS011;67082;41.704;44.768;2023-12-22T01:07:42;22.73;;;12.25;;
77888;SDS011;67082;41.704;44.768;2023-12-22T01:10:11;26.77;;;12.80;;
77888;SDS011;67082;41.704;44.768;2023-12-22T01:12:39;30.58;;;13.52;;
77888;SDS011;67082;41.704;44.768;2023-12-22T01:15:08;26.75;;;13.00;;
77888;SDS011;67082;41.704;44.768;2023-12-22T01:17:36;30.45;;;14.50;;
77888;SDS011;67082;41.704;44.768;2023-12-22T01:20:05;32.60;;;14.43;;
77888;SDS011;67082;41.704;44.768;2023-12-22T01:22:34;35.10;;;14.30;;
77888;SDS011;67082;41.704;44.768;2023-12-22T01:25:06;33.38;;;13.98;;
77888;SDS011;67082;41.704;44.768;2023-12-22T01:27:34;28.02;;;14.10;;
77888;SDS011;67082;41.704;44.768;2023-12-22T01:30:03;33.53;;;14.25;;
77888;SDS011;67082;41.704;44.768;2023-12-22T01:32:31;28.73;;;14.63;;
77888;SDS011;67082;41.704;44.768;2023-12-22T01:35:03;28.30;;;14.15;;
77888;SDS011;67082;41.704;44.768;2023-12-22T01:37:37;28.88;;;13.55;;
77888;SDS011;67082;41.704;44.768;2023-12-22T01:40:05;31.27;;;13.90;;
77888;SDS011;67082;41.704;44.768;2023-12-22T01:42:34;29.05;;;13.10;;
77888;SDS011;67082;41.704;44.768;2023-12-22T01:45:03;29.35;;;13.80;;
77888;SDS011;67082;41.704;44.768;2023-12-22T01:47:31;26.42;;;12.98;;
77888;SDS011;67082;41.704;44.768;2023-12-22T01:50:00;28.33;;;12.90;;
77888;SDS011;67082;41.704;44.768;2023-12-22T01:52:30;26.33;;;13.40;;
77888;SDS011;67082;41.704;44.768;2023-12-22T01:54:58;31.75;;;13.50;;
77888;SDS011;67082;41.704;44.768;2023-12-22T01:57:26;33.95;;;13.07;;
77888;SDS011;67082;41.704;44.768;2023-12-22T01:59:55;25.25;;;13.68;;
77888;SDS011;67082;41.704;44.768;2023-12-22T02:02:24;39.20;;;14.38;;
77888;SDS011;67082;41.704;44.768;2023-12-22T02:04:53;30.40;;;14.00;;
77888;SDS011;67082;41.704;44.768;2023-12-22T02:07:21;27.98;;;14.35;;
77888;SDS011;67082;41.704;44.768;2023-12-22T02:09:52;26.85;;;14.20;;
77888;SDS011;67082;41.704;44.768;2023-12-22T02:12:20;29.77;;;14.13;;
77888;SDS011;67082;41.704;44.768;2023-12-22T02:14:49;31.27;;;14.07;;
77888;SDS011;67082;41.704;44.768;2023-12-22T02:17:23;31.40;;;14.30;;
77888;SDS011;67082;41.704;44.768;2023-12-22T02:19:57;27.52;;;13.60;;
77888;SDS011;67082;41.704;44.768;2023-12-22T02:22:28;28.13;;;14.70;;
77888;SDS011;67082;41.704;44.768;2023-12-22T02:24:57;26.63;;;13.48;;
77888;SDS011;67082;41.704;44.768;2023-12-22T02:27:31;27.70;;;13.77;;
77888;SDS011;67082;41.704;44.768;2023-12-22T02:30:11;26.65;;;13.00;;
77888;SDS011;67082;41.704;44.768;2023-12-22T02:32:43;24.00;;;11.88;;
77888;SDS011;67082;41.704;44.768;2023-12-22T02:35:16;32.63;;;13.68;;
77888;SDS011;67082;41.704;44.768;2023-12-22T02:37:48;29.33;;;12.88;;
77888;SDS011;67082;41.704;44.768;2023-12-22T02:40:18;23.58;;;11.93;;
77888;SDS011;67082;41.704;44.768;2023-12-22T02:42:47;27.17;;;12.25;;
77888;SDS011;67082;41.704;44.768;2023-12-22T02:45:17;27.92;;;12.77;;
77888;SDS011;67082;41.704;44.768;2023-12-22T02:47:46;27.48;;;12.40;;
77888;SDS011;67082;41.704;44.768;2023-12-22T02:50:16;27.83;;;13.35;;
77888;SDS011;67082;41.704;44.768;2023-12-22T02:52:44;28.73;;;12.27;;
77888;SDS011;67082;41.704;44.768;2023-12-22T02:55:13;25.63;;;12.90;;
77888;SDS011;67082;41.704;44.768;2023-12-22T02:57:41;24.17;;;11.73;;
77888;SDS011;67082;41.704;44.768;2023-12-22T03:00:12;29.38;;;12.52;;
77888;SDS011;67082;41.704;44.768;2023-12-22T03:02:40;26.75;;;13.63;;
77888;SDS011;67082;41.704;44.768;2023-12-22T03:05:09;29.45;;;13.23;;
77888;SDS011;67082;41.704;44.768;2023-12-22T03:07:37;29.92;;;13.10;;
77888;SDS011;67082;41.704;44.768;2023-12-22T03:10:05;29.92;;;12.98;;
77888;SDS011;67082;41.704;44.768;2023-12-22T03:12:34;30.35;;;13.77;;
77888;SDS011;67082;41.704;44.768;2023-12-22T03:15:02;26.67;;;13.27;;
77888;SDS011;67082;41.704;44.768;2023-12-22T03:17:32;26.75;;;13.00;;
77888;SDS011;67082;41.704;44.768;2023-12-22T03:20:01;29.05;;;13.30;;
77888;SDS011;67082;41.704;44.768;2023-12-22T03:22:31;28.23;;;12.65;;
77888;SDS011;67082;41.704;44.768;2023-12-22T03:24:59;26.30;;;13.70;;
77888;SDS011;67082;41.704;44.768;2023-12-22T03:27:31;30.50;;;14.50;;
77888;SDS011;67082;41.704;44.768;2023-12-22T03:30:00;29.30;;;13.65;;
77888;SDS011;67082;41.704;44.768;2023-12-22T03:32:33;32.97;;;14.05;;
77888;SDS011;67082;41.704;44.768;2023-12-22T03:35:02;31.90;;;14.73;;
77888;SDS011;67082;41.704;44.768;2023-12-22T03:37:32;38.22;;;14.57;;
77888;SDS011;67082;41.704;44.768;2023-12-22T03:40:00;29.75;;;14.13;;
77888;SDS011;67082;41.704;44.768;2023-12-22T03:42:30;30.83;;;14.43;;
77888;SDS011;67082;41.704;44.768;2023-12-22T03:44:58;26.63;;;14.48;;
77888;SDS011;67082;41.704;44.768;2023-12-22T03:47:26;31.38;;;14.13;;
77888;SDS011;67082;41.704;44.768;2023-12-22T03:49:54;30.58;;;14.00;;
77888;SDS011;67082;41.704;44.768;2023-12-22T03:52:23;25.65;;;13.50;;
77888;SDS011;67082;41.704;44.768;2023-12-22T03:54:51;33.40;;;14.18;;
77888;SDS011;67082;41.704;44.768;2023-12-22T03:57:19;27.27;;;13.93;;
77888;SDS011;67082;41.704;44.768;2023-12-22T03:59:48;26.48;;;14.00;;
77888;SDS011;67082;41.704;44.768;2023-12-22T04:02:16;28.45;;;14.10;;
77888;SDS011;67082;41.704;44.768;2023-12-22T04:04:45;32.65;;;15.48;;
77888;SDS011;67082;41.704;44.768;2023-12-22T04:07:13;30.08;;;14.30;;
77888;SDS011;67082;41.704;44.768;2023-12-22T04:09:41;32.97;;;14.65;;
77888;SDS011;67082;41.704;44.768;2023-12-22T04:12:09;35.67;;;14.60;;
77888;SDS011;67082;41.704;44.768;2023-12-22T04:14:38;32.70;;;15.10;;
77888;SDS011;67082;41.704;44.768;2023-12-22T04:17:06;33.10;;;13.90;;
77888;SDS011;67082;41.704;44.768;2023-12-22T04:19:35;25.80;;;13.50;;
77888;SDS011;67082;41.704;44.768;2023-12-22T04:22:04;33.53;;;14.07;;
77888;SDS011;67082;41.704;44.768;2023-12-22T04:24:32;27.77;;;13.88;;
77888;SDS011;67082;41.704;44.768;2023-12-22T04:27:00;30.52;;;14.07;;
77888;SDS011;67082;41.704;44.768;2023-12-22T04:29:28;31.05;;;13.23;;
77888;SDS011;67082;41.704;44.768;2023-12-22T04:31:56;30.15;;;13.10;;
77888;SDS011;67082;41.704;44.768;2023-12-22T04:34:25;28.65;;;13.82;;
77888;SDS011;67082;41.704;44.768;2023-12-22T04:36:53;29.30;;;13.23;;
77888;SDS011;67082;41.704;44.768;2023-12-22T04:39:21;28.33;;;12.80;;
77888;SDS011;67082;41.704;44.768;2023-12-22T04:41:53;23.73;;;12.68;;
77888;SDS011;67082;41.704;44.768;2023-12-22T04:44:21;29.30;;;12.57;;
77888;SDS011;67082;41.704;44.768;2023-12-22T04:46:49;29.33;;;11.02;;
77888;SDS011;67082;41.704;44.768;2023-12-22T04:49:18;22.20;;;11.48;;
77888;SDS011;67082;41.704;44.768;2023-12-22T04:51:46;19.45;;;10.65;;
77888;SDS011;67082;41.704;44.768;2023-12-22T04:54:14;18.52;;;10.05;;
77888;SDS011;67082;41.704;44.768;2023-12-22T04:56:43;19.65;;;10.57;;
77888;SDS011;67082;41.704;44.768;2023-12-22T04:59:11;21.35;;;9.60;;
77888;SDS011;67082;41.704;44.768;2023-12-22T05:01:39;21.70;;;9.32;;
77888;SDS011;67082;41.704;44.768;2023-12-22T05:04:07;20.63;;;9.55;;
77888;SDS011;67082;41.704;44.768;2023-12-22T05:06:38;21.50;;;9.85;;
77888;SDS011;67082;41.704;44.768;2023-12-22T05:09:06;22.02;;;10.82;;
77888;SDS011;67082;41.704;44.768;2023-12-22T05:11:34;28.58;;;12.65;;
77888;SDS011;67082;41.704;44.768;2023-12-22T05:14:03;30.88;;;13.75;;
77888;SDS011;67082;41.704;44.768;2023-12-22T05:16:31;28.33;;;13.35;;
77888;SDS011;67082;41.704;44.768;2023-12-22T05:19:00;31.75;;;14.07;;
77888;SDS011;67082;41.704;44.768;2023-12-22T05:21:28;30.27;;;13.10;;
77888;SDS011;67082;41.704;44.768;2023-12-22T05:23:58;27.02;;;13.52;;
77888;SDS011;67082;41.704;44.768;2023-12-22T05:26:26;34.25;;;15.30;;
77888;SDS011;67082;41.704;44.768;2023-12-22T05:28:58;27.33;;;12.80;;
77888;SDS011;67082;41.704;44.768;2023-12-22T05:31:26;27.25;;;11.93;;
77888;SDS011;67082;41.704;44.768;2023-12-22T05:33:55;28.48;;;12.27;;
77888;SDS011;67082;41.704;44.768;2023-12-22T05:36:23;37.35;;;15.30;;
77888;SDS011;67082;41.704;44.768;2023-12-22T05:38:53;48.83;;;15.82;;
77888;SDS011;67082;41.704;44.768;2023-12-22T05:41:22;34.88;;;16.00;;
77888;SDS011;67082;41.704;44.768;2023-12-22T05:43:50;35.45;;;16.00;;
77888;SDS011;67082;41.704;44.768;2023-12-22T05:46:18;48.60;;;17.20;;
77888;SDS011;67082;41.704;44.768;2023-12-22T05:48:47;39.53;;;17.13;;
77888;SDS011;67082;41.704;44.768;2023-12-22T05:51:15;43.78;;;16.63;;
77888;SDS011;67082;41.704;44.768;2023-12-22T05:53:44;36.75;;;17.77;;
77888;SDS011;67082;41.704;44.768;2023-12-22T05:56:18;43.40;;;18.17;;
77888;SDS011;67082;41.704;44.768;2023-12-22T05:58:48;40.58;;;16.85;;
77888;SDS011;67082;41.704;44.768;2023-12-22T06:01:18;36.08;;;16.10;;
77888;SDS011;67082;41.704;44.768;2023-12-22T06:03:46;42.28;;;16.50;;
77888;SDS011;67082;41.704;44.768;2023-12-22T06:06:16;43.03;;;18.45;;
77888;SDS011;67082;41.704;44.768;2023-12-22T06:08:44;43.17;;;16.70;;
77888;SDS011;67082;41.704;44.768;2023-12-22T06:11:12;40.60;;;17.50;;
77888;SDS011;67082;41.704;44.768;2023-12-22T06:13:42;41.63;;;17.45;;
77888;SDS011;67082;41.704;44.768;2023-12-22T06:16:11;43.83;;;17.58;;
77888;SDS011;67082;41.704;44.768;2023-12-22T06:18:41;54.15;;;18.60;;
77888;SDS011;67082;41.704;44.768;2023-12-22T06:21:09;45.72;;;17.80;;
77888;SDS011;67082;41.704;44.768;2023-12-22T06:23:38;50.25;;;17.23;;
77888;SDS011;67082;41.704;44.768;2023-12-22T06:26:09;44.50;;;17.65;;
77888;SDS011;67082;41.704;44.768;2023-12-22T06:28:40;43.30;;;17.25;;
77888;SDS011;67082;41.704;44.768;2023-12-22T06:31:15;47.05;;;17.17;;
77888;SDS011;67082;41.704;44.768;2023-12-22T06:33:47;51.10;;;17.27;;
77888;SDS011;67082;41.704;44.768;2023-12-22T06:38:52;49.45;;;18.10;;
77888;SDS011;67082;41.704;44.768;2023-12-22T06:41:26;43.72;;;17.95;;
77888;SDS011;67082;41.704;44.768;2023-12-22T06:43:57;33.22;;;15.32;;
77888;SDS011;67082;41.704;44.768;2023-12-22T06:46:29;32.95;;;15.65;;
77888;SDS011;67082;41.704;44.768;2023-12-22T06:48:59;38.58;;;15.65;;
77888;SDS011;67082;41.704;44.768;2023-12-22T06:51:31;31.52;;;14.68;;
77888;SDS011;67082;41.704;44.768;2023-12-22T06:54:04;32.95;;;15.52;;
77888;SDS011;67082;41.704;44.768;2023-12-22T06:56:33;36.45;;;15.52;;
77888;SDS011;67082;41.704;44.768;2023-12-22T06:59:03;36.75;;;15.70;;
77888;SDS011;67082;41.704;44.768;2023-12-22T07:01:31;40.88;;;16.55;;
77888;SDS011;67082;41.704;44.768;2023-12-22T07:04:02;45.22;;;18.25;;
77888;SDS011;67082;41.704;44.768;2023-12-22T07:06:32;38.92;;;16.60;;
77888;SDS011;67082;41.704;44.768;2023-12-22T07:11:42;35.45;;;17.27;;
77888;SDS011;67082;41.704;44.768;2023-12-22T07:14:13;39.47;;;17.83;;
77888;SDS011;67082;41.704;44.768;2023-12-22T07:16:41;42.22;;;16.75;;
77888;SDS011;67082;41.704;44.768;2023-12-22T07:19:15;40.28;;;17.77;;
77888;SDS011;67082;41.704;44.768;2023-12-22T07:21:43;38.83;;;17.80;;
77888;SDS011;67082;41.704;44.768;2023-12-22T07:24:14;37.53;;;18.30;;
77888;SDS011;67082;41.704;44.768;2023-12-22T07:26:43;43.03;;;19.42;;
77888;SDS011;67082;41.704;44.768;2023-12-22T07:29:13;38.05;;;17.60;;
77888;SDS011;67082;41.704;44.768;2023-12-22T07:31:41;33.03;;;17.00;;
77888;SDS011;67082;41.704;44.768;2023-12-22T07:34:13;44.45;;;16.95;;
77888;SDS011;67082;41.704;44.768;2023-12-22T07:36:42;39.10;;;17.15;;
77888;SDS011;67082;41.704;44.768;2023-12-22T07:39:22;40.55;;;18.30;;
77888;SDS011;67082;41.704;44.768;2023-12-22T07:41:50;38.80;;;17.00;;
77888;SDS011;67082;41.704;44.768;2023-12-22T07:44:19;35.63;;;15.68;;
77888;SDS011;67082;41.704;44.768;2023-12-22T07:46:55;47.67;;;17.67;;
77888;SDS011;67082;41.704;44.768;2023-12-22T07:49:29;42.78;;;18.65;;
77888;SDS011;67082;41.704;44.768;2023-12-22T07:51:59;45.33;;;18.48;;
77888;SDS011;67082;41.704;44.768;2023-12-22T07:54:30;44.30;;;19.08;;
77888;SDS011;67082;41.704;44.768;2023-12-22T07:56:58;44.15;;;18.88;;
77888;SDS011;67082;41.704;44.768;2023-12-22T07:59:26;37.67;;;18.38;;
77888;SDS011;67082;41.704;44.768;2023-12-22T08:01:59;44.17;;;19.33;;
77888;SDS011;67082;41.704;44.768;2023-12-22T08:04:28;45.42;;;19.98;;
77888;SDS011;67082;41.704;44.768;2023-12-22T08:06:56;49.40;;;21.00;;
77888;SDS011;67082;41.704;44.768;2023-12-22T08:09:24;47.97;;;20.45;;
77888;SDS011;67082;41.704;44.768;2023-12-22T08:11:52;42.75;;;20.60;;
77888;SDS011;67082;41.704;44.768;2023-12-22T08:14:21;50.60;;;21.73;;
77888;SDS011;67082;41.704;44.768;2023-12-22T08:16:50;54.83;;;22.10;;
77888;SDS011;67082;41.704;44.768;2023-12-22T08:19:19;53.85;;;21.73;;
77888;SDS011;67082;41.704;44.768;2023-12-22T08:21:49;51.70;;;22.33;;
77888;SDS011;67082;41.704;44.768;2023-12-22T08:24:20;51.55;;;21.98;;
77888;SDS011;67082;41.704;44.768;2023-12-22T08:26:50;45.13;;;20.90;;
77888;SDS011;67082;41.704;44.768;2023-12-22T08:29:20;49.72;;;22.45;;
77888;SDS011;67082;41.704;44.768;2023-12-22T08:31:48;55.58;;;23.40;;
77888;SDS011;67082;41.704;44.768;2023-12-22T08:34:17;64.78;;;24.13;;
77888;SDS011;67082;41.704;44.768;2023-12-22T08:36:45;53.17;;;22.35;;
77888;SDS011;67082;41.704;44.768;2023-12-22T08:39:14;55.17;;;23.00;;
77888;SDS011;67082;41.704;44.768;2023-12-22T08:41:42;55.08;;;22.10;;
77888;SDS011;67082;41.704;44.768;2023-12-22T08:44:11;52.17;;;22.40;;
77888;SDS011;67082;41.704;44.768;2023-12-22T08:46:42;49.85;;;21.52;;
77888;SDS011;67082;41.704;44.768;2023-12-22T08:49:11;54.88;;;22.60;;
77888;SDS011;67082;41.704;44.768;2023-12-22T08:51:39;50.10;;;21.65;;
77888;SDS011;67082;41.704;44.768;2023-12-22T08:54:09;45.90;;;21.00;;
77888;SDS011;67082;41.704;44.768;2023-12-22T08:56:37;52.42;;;20.42;;
77888;SDS011;67082;41.704;44.768;2023-12-22T08:59:06;53.67;;;21.67;;
77888;SDS011;67082;41.704;44.768;2023-12-22T09:01:37;53.03;;;21.38;;
77888;SDS011;67082;41.704;44.768;2023-12-22T09:04:05;175.32;;;36.53;;
77888;SDS011;67082;41.704;44.768;2023-12-22T09:06:36;57.80;;;20.67;;
77888;SDS011;67082;41.704;44.768;2023-12-22T09:09:04;44.55;;;20.10;;
77888;SDS011;67082;41.704;44.768;2023-12-22T09:11:33;58.15;;;21.15;;
77888;SDS011;67082;41.704;44.768;2023-12-22T09:14:04;44.30;;;19.65;;
77888;SDS011;67082;41.704;44.768;2023-12-22T09:16:37;43.33;;;19.02;;
77888;SDS011;67082;41.704;44.768;2023-12-22T09:19:06;48.15;;;19.80;;
77888;SDS011;67082;41.704;44.768;2023-12-22T09:21:34;49.05;;;19.42;;
77888;SDS011;67082;41.704;44.768;2023-12-22T09:24:03;44.53;;;19.23;;
77888;SDS011;67082;41.704;44.768;2023-12-22T09:26:33;42.60;;;20.00;;
77888;SDS011;67082;41.704;44.768;2023-12-22T09:29:02;47.22;;;20.75;;
77888;SDS011;67082;41.704;44.768;2023-12-22T09:31:30;44.10;;;22.25;;
77888;SDS011;67082;41.704;44.768;2023-12-22T09:34:01;47.90;;;20.48;;
77888;SDS011;67082;41.704;44.768;2023-12-22T09:36:31;55.47;;;21.35;;
77888;SDS011;67082;41.704;44.768;2023-12-22T09:39:01;50.72;;;21.00;;
77888;SDS011;67082;41.704;44.768;2023-12-22T09:41:31;45.47;;;20.83;;
77888;SDS011;67082;41.704;44.768;2023-12-22T09:43:59;44.35;;;20.92;;
77888;SDS011;67082;41.704;44.768;2023-12-22T09:46:32;43.92;;;19.73;;
77888;SDS011;67082;41.704;44.768;2023-12-22T09:49:02;41.30;;;19.35;;
77888;SDS011;67082;41.704;44.768;2023-12-22T09:51:31;54.78;;;21.02;;
77888;SDS011;67082;41.704;44.768;2023-12-22T09:54:01;50.25;;;20.85;;
77888;SDS011;67082;41.704;44.768;2023-12-22T09:56:32;47.15;;;20.52;;
77888;SDS011;67082;41.704;44.768;2023-12-22T09:59:01;55.75;;;21.17;;
77888;SDS011;67082;41.704;44.768;2023-12-22T10:01:30;53.75;;;20.77;;
77888;SDS011;67082;41.704;44.768;2023-12-22T10:03:59;52.75;;;22.45;;
77888;SDS011;67082;41.704;44.768;2023-12-22T10:06:27;52.50;;;23.23;;
77888;SDS011;67082;41.704;44.768;2023-12-22T10:08:56;38.97;;;18.88;;
77888;SDS011;67082;41.704;44.768;2023-12-22T10:11:27;40.17;;;18.77;;
77888;SDS011;67082;41.704;44.768;2023-12-22T10:14:01;46.25;;;19.85;;
77888;SDS011;67082;41.704;44.768;2023-12-22T10:16:30;43.58;;;18.80;;
77888;SDS011;67082;41.704;44.768;2023-12-22T10:18:59;36.85;;;16.85;;
77888;SDS011;67082;41.704;44.768;2023-12-22T10:21:27;37.15;;;15.38;;
77888;SDS011;67082;41.704;44.768;2023-12-22T10:24:01;34.90;;;12.82;;
77888;SDS011;67082;41.704;44.768;2023-12-22T10:26:30;40.78;;;17.42;;
77888;SDS011;67082;41.704;44.768;2023-12-22T10:28:59;40.05;;;17.67;;
77888;SDS011;67082;41.704;44.768;2023-12-22T10:31:27;51.25;;;19.00;;
77888;SDS011;67082;41.704;44.768;2023-12-22T10:33:55;49.78;;;20.80;;
77888;SDS011;67082;41.704;44.768;2023-12-22T10:36:23;48.35;;;20.45;;
77888;SDS011;67082;41.704;44.768;2023-12-22T10:38:52;37.80;;;17.75;;
77888;SDS011;67082;41.704;44.768;2023-12-22T10:41:20;44.83;;;19.00;;
77888;SDS011;67082;41.704;44.768;2023-12-22T10:43:50;42.28;;;18.05;;
77888;SDS011;67082;41.704;44.768;2023-12-22T10:46:18;25.63;;;13.25;;
77888;SDS011;67082;41.704;44.768;2023-12-22T10:48:47;41.70;;;16.70;;
77888;SDS011;67082;41.704;44.768;2023-12-22T10:51:15;48.00;;;20.20;;
77888;SDS011;67082;41.704;44.768;2023-12-22T10:53:46;46.35;;;19.73;;
77888;SDS011;67082;41.704;44.768;2023-12-22T10:59:08;48.85;;;19.52;;
77888;SDS011;67082;41.704;44.768;2023-12-22T11:01:37;41.08;;;19.75;;
77888;SDS011;67082;41.704;44.768;2023-12-22T11:04:07;54.15;;;20.60;;
77888;SDS011;67082;41.704;44.768;2023-12-22T11:06:41;49.63;;;20.88;;
77888;SDS011;67082;41.704;44.768;2023-12-22T11:09:11;56.90;;;21.67;;
77888;SDS011;67082;41.704;44.768;2023-12-22T11:11:43;56.45;;;21.95;;
77888;SDS011;67082;41.704;44.768;2023-12-22T11:14:12;58.47;;;22.70;;
77888;SDS011;67082;41.704;44.768;2023-12-22T11:16:41;59.60;;;23.42;;
77888;SDS011;67082;41.704;44.768;2023-12-22T11:19:16;71.20;;;24.27;;
77888;SDS011;67082;41.704;44.768;2023-12-22T11:21:47;65.63;;;24.17;;
77888;SDS011;67082;41.704;44.768;2023-12-22T11:24:18;60.70;;;22.75;;
77888;SDS011;67082;41.704;44.768;2023-12-22T11:26:46;65.95;;;22.92;;
77888;SDS011;67082;41.704;44.768;2023-12-22T11:29:17;56.85;;;22.45;;
77888;SDS011;67082;41.704;44.768;2023-12-22T11:31:52;66.93;;;23.30;;
77888;SDS011;67082;41.704;44.768;2023-12-22T11:34:23;63.30;;;24.08;;
77888;SDS011;67082;41.704;44.768;2023-12-22T11:36:56;54.67;;;21.75;;
77888;SDS011;67082;41.704;44.768;2023-12-22T11:39:26;58.90;;;21.80;;
77888;SDS011;67082;41.704;44.768;2023-12-22T11:41:54;53.42;;;21.02;;
77888;SDS011;67082;41.704;44.768;2023-12-22T11:44:24;53.83;;;20.15;;
77888;SDS011;67082;41.704;44.768;2023-12-22T11:47:02;51.90;;;20.35;;
77888;SDS011;67082;41.704;44.768;2023-12-22T11:49:35;65.50;;;21.80;;
77888;SDS011;67082;41.704;44.768;2023-12-22T11:52:11;66.32;;;21.48;;
77888;SDS011;67082;41.704;44.768;2023-12-22T11:54:44;59.28;;;18.17;;
77888;SDS011;67082;41.704;44.768;2023-12-22T11:57:37;57.88;;;19.30;;
77888;SDS011;67082;41.704;44.768;2023-12-22T12:02:55;55.95;;;20.52;;
77888;SDS011;67082;41.704;44.768;2023-12-22T12:05:24;51.50;;;18.85;;
77888;SDS011;67082;41.704;44.768;2023-12-22T12:07:53;51.05;;;18.13;;
77888;SDS011;67082;41.704;44.768;2023-12-22T12:15:35;52.35;;;19.60;;
77888;SDS011;67082;41.704;44.768;2023-12-22T12:18:04;53.80;;;20.33;;
77888;SDS011;67082;41.704;44.768;2023-12-22T12:20:33;56.60;;;19.15;;
77888;SDS011;67082;41.704;44.768;2023-12-22T12:23:02;58.42;;;19.15;;
77888;SDS011;67082;41.704;44.768;2023-12-22T12:25:34;51.83;;;19.73;;
77888;SDS011;67082;41.704;44.768;2023-12-22T12:28:04;55.88;;;19.52;;
77888;SDS011;67082;41.704;44.768;2023-12-22T12:30:35;54.75;;;19.42;;
77888;SDS011;67082;41.704;44.768;2023-12-22T12:33:07;47.17;;;19.35;;
77888;SDS011;67082;41.704;44.768;2023-12-22T12:35:38;46.28;;;19.85;;
77888;SDS011;67082;41.704;44.768;2023-12-22T12:38:12;54.67;;;20.05;;
77888;SDS011;67082;41.704;44.768;2023-12-22T12:40:44;48.83;;;20.90;;
77888;SDS011;67082;41.704;44.768;2023-12-22T12:43:14;51.55;;;19.33;;
77888;SDS011;67082;41.704;44.768;2023-12-22T12:45:43;58.15;;;19.73;;
77888;SDS011;67082;41.704;44.768;2023-12-22T12:48:11;46.75;;;19.25;;
77888;SDS011;67082;41.704;44.768;2023-12-22T12:50:46;49.63;;;20.33;;
77888;SDS011;67082;41.704;44.768;2023-12-22T12:53:16;54.53;;;20.15;;
77888;SDS011;67082;41.704;44.768;2023-12-22T12:55:45;63.95;;;20.55;;
77888;SDS011;67082;41.704;44.768;2023-12-22T12:58:13;49.40;;;19.63;;
77888;SDS011;67082;41.704;44.768;2023-12-22T13:00:41;48.17;;;18.95;;
77888;SDS011;67082;41.704;44.768;2023-12-22T13:03:10;50.42;;;21.55;;
77888;SDS011;67082;41.704;44.768;2023-12-22T13:05:38;50.78;;;20.05;;
77888;SDS011;67082;41.704;44.768;2023-12-22T13:08:12;48.03;;;20.95;;
77888;SDS011;67082;41.704;44.768;2023-12-22T13:10:41;52.58;;;22.38;;
77888;SDS011;67082;41.704;44.768;2023-12-22T13:13:10;53.10;;;20.33;;
77888;SDS011;67082;41.704;44.768;2023-12-22T13:15:42;58.15;;;20.13;;
77888;SDS011;67082;41.704;44.768;2023-12-22T13:18:10;61.97;;;20.98;;
77888;SDS011;67082;41.704;44.768;2023-12-22T13:20:39;58.00;;;21.10;;
77888;SDS011;67082;41.704;44.768;2023-12-22T13:23:07;59.00;;;21.67;;
77888;SDS011;67082;41.704;44.768;2023-12-22T13:25:39;49.70;;;21.42;;
77888;SDS011;67082;41.704;44.768;2023-12-22T13:28:08;66.57;;;22.70;;
77888;SDS011;67082;41.704;44.768;2023-12-22T13:30:37;63.67;;;21.92;;
77888;SDS011;67082;41.704;44.768;2023-12-22T13:33:09;53.83;;;20.70;;
77888;SDS011;67082;41.704;44.768;2023-12-22T13:35:38;52.97;;;19.58;;
77888;SDS011;67082;41.704;44.768;2023-12-22T13:38:09;50.20;;;21.05;;
77888;SDS011;67082;41.704;44.768;2023-12-22T13:40:39;66.13;;;24.15;;
77888;SDS011;67082;41.704;44.768;2023-12-22T13:43:14;64.82;;;23.90;;
77888;SDS011;67082;41.704;44.768;2023-12-22T13:45:42;65.10;;;22.50;;
77888;SDS011;67082;41.704;44.768;2023-12-22T13:48:11;62.58;;;22.52;;
77888;SDS011;67082;41.704;44.768;2023-12-22T13:50:40;62.67;;;22.77;;
77888;SDS011;67082;41.704;44.768;2023-12-22T13:53:08;68.53;;;24.25;;
77888;SDS011;67082;41.704;44.768;2023-12-22T13:55:37;58.40;;;22.92;;
77888;SDS011;67082;41.704;44.768;2023-12-22T13:58:08;70.28;;;22.55;;
77888;SDS011;67082;41.704;44.768;2023-12-22T14:00:39;66.90;;;23.50;;
77888;SDS011;67082;41.704;44.768;2023-12-22T14:03:10;69.78;;;24.48;;
77888;SDS011;67082;41.704;44.768;2023-12-22T14:05:39;74.95;;;24.13;;
77888;SDS011;67082;41.704;44.768;2023-12-22T14:08:08;63.60;;;23.20;;
77888;SDS011;67082;41.704;44.768;2023-12-22T14:10:36;66.70;;;22.48;;
77888;SDS011;67082;41.704;44.768;2023-12-22T14:13:04;71.97;;;25.15;;
77888;SDS011;67082;41.704;44.768;2023-12-22T14:15:33;72.20;;;29.65;;
77888;SDS011;67082;41.704;44.768;2023-12-22T14:18:11;70.13;;;27.90;;
77888;SDS011;67082;41.704;44.768;2023-12-22T14:20:40;63.63;;;25.45;;
77888;SDS011;67082;41.704;44.768;2023-12-22T14:23:09;58.47;;;21.80;;
77888;SDS011;67082;41.704;44.768;2023-12-22T14:25:41;70.38;;;21.83;;
77888;SDS011;67082;41.704;44.768;2023-12-22T14:28:10;61.55;;;21.55;;
77888;SDS011;67082;41.704;44.768;2023-12-22T14:30:38;67.60;;;22.63;;
77888;SDS011;67082;41.704;44.768;2023-12-22T14:33:06;64.57;;;22.90;;
77888;SDS011;67082;41.704;44.768;2023-12-22T14:35:36;63.05;;;21.98;;
77888;SDS011;67082;41.704;44.768;2023-12-22T14:38:04;57.80;;;22.77;;